Time;durP1;ratioP1;P1;durP2;ratioP2;P2;SDS_P1;SDS_P2;PMS_P1;PMS_P2;Temp;Humidity;BMP_temperature;BMP_pressure;BME280_temperature;BME280_humidity;BME280_pressure;Samples;Min_cycle;Max_cycle;Signal;HPM_P1;HPM_P2
2022/08/29 00:00:18;;;;;;;6.70;3.50;;;23.10;47.50;;;;;;5043226;28;20471;-88
2022/08/29 00:02:48;;;;;;;3.10;2.60;;;23.00;47.50;;;;;;5055411;28;20501;-88
2022/08/29 00:05:15;;;;;;;5.93;3.30;;;22.90;47.80;;;;;;5066051;28;20475;-89
2022/08/29 00:07:42;;;;;;;4.47;3.13;;;22.90;47.80;;;;;;5063799;28;20503;-89
2022/08/29 00:10:09;;;;;;;3.43;2.80;;;22.90;47.80;;;;;;5046027;28;20940;-88
2022/08/29 00:12:37;;;;;;;6.13;3.23;;;22.80;47.40;;;;;;5072456;28;20441;-90
2022/08/29 00:15:06;;;;;;;8.73;2.90;;;22.80;47.00;;;;;;5068010;28;20522;-89
2022/08/29 00:17:34;;;;;;;5.50;3.50;;;22.70;47.40;;;;;;5047187;28;20463;-88
2022/08/29 00:20:03;;;;;;;7.73;2.80;;;22.70;47.80;;;;;;5070733;28;20475;-88
2022/08/29 00:22:30;;;;;;;3.90;3.43;;;22.60;47.70;;;;;;5069372;28;20444;-88
2022/08/29 00:25:01;;;;;;;5.50;2.80;;;22.60;47.90;;;;;;5067427;28;20486;-91
2022/08/29 00:27:28;;;;;;;3.87;2.60;;;22.60;48.30;;;;;;5064323;28;20696;-88
2022/08/29 00:29:55;;;;;;;3.00;2.70;;;22.60;48.40;;;;;;5046539;28;20464;-87
2022/08/29 00:32:22;;;;;;;4.03;3.00;;;22.50;48.30;;;;;;5048898;28;20455;-86
2022/08/29 00:34:49;;;;;;;4.63;2.80;;;22.50;48.40;;;;;;5053732;28;20477;-88
2022/08/29 00:37:18;;;;;;;3.37;2.73;;;22.40;48.30;;;;;;5080954;28;20654;-89
2022/08/29 00:39:45;;;;;;;11.13;3.50;;;22.40;47.70;;;;;;5065858;28;20471;-91
2022/08/29 00:42:12;;;;;;;9.03;3.23;;;22.30;47.60;;;;;;5054937;28;20880;-89
2022/08/29 00:44:39;;;;;;;4.03;3.10;;;22.30;48.10;;;;;;5061078;28;20542;-88
2022/08/29 00:47:12;;;;;;;6.83;3.17;;;22.20;48.20;;;;;;5078009;28;20451;-88
2022/08/29 00:49:41;;;;;;;9.30;3.60;;;22.30;48.30;;;;;;5076211;28;21019;-91
2022/08/29 00:52:16;;;;;;;4.97;3.07;;;22.20;48.20;;;;;;5042472;28;20536;-88
2022/08/29 00:54:50;;;;;;;3.37;2.50;;;22.20;48.20;;;;;;5050103;28;20829;-94
2022/08/29 00:57:19;;;;;;;7.80;3.03;;;22.20;48.30;;;;;;5045940;28;20456;-88
2022/08/29 00:59:48;;;;;;;6.30;2.83;;;22.20;48.40;;;;;;5057107;28;20443;-88
2022/08/29 01:02:15;;;;;;;7.13;3.93;;;22.10;49.10;;;;;;5063357;28;20449;-92
2022/08/29 01:04:42;;;;;;;4.30;2.53;;;22.20;48.90;;;;;;5078937;28;20542;-90
2022/08/29 01:07:10;;;;;;;2.60;2.40;;;22.10;48.70;;;;;;5057608;28;20506;-87
2022/08/29 01:09:39;;;;;;;4.40;2.97;;;22.10;48.20;;;;;;5034272;28;20436;-91
2022/08/29 01:12:16;;;;;;;6.83;2.70;;;22.10;47.90;;;;;;5081624;28;20802;-87
2022/08/29 01:14:47;;;;;;;6.80;3.13;;;22.00;47.50;;;;;;5080199;28;20470;-88
2022/08/29 01:17:18;;;;;;;3.23;2.80;;;22.00;47.30;;;;;;5069743;28;20479;-89
2022/08/29 01:19:50;;;;;;;4.87;3.23;;;21.90;47.20;;;;;;5082456;28;20502;-88
2022/08/29 01:22:33;;;;;;;4.83;2.70;;;21.90;47.80;;;;;;5079346;28;20436;-87
2022/08/29 01:25:04;;;;;;;8.40;2.83;;;21.90;47.90;;;;;;5057234;28;20567;-91
2022/08/29 01:27:34;;;;;;;5.67;3.00;;;21.90;47.70;;;;;;5077810;28;20490;-88
2022/08/29 01:30:01;;;;;;;4.47;2.40;;;21.90;47.70;;;;;;5078996;28;20449;-88
2022/08/29 01:32:29;;;;;;;3.67;2.60;;;21.80;47.50;;;;;;5060034;28;20467;-88
2022/08/29 01:34:57;;;;;;;3.57;2.80;;;21.80;48.10;;;;;;5048836;28;20513;-87
2022/08/29 01:37:28;;;;;;;2.73;2.47;;;21.80;48.30;;;;;;5063162;28;20444;-89
2022/08/29 01:39:55;;;;;;;3.30;3.00;;;21.80;48.50;;;;;;5079322;28;20510;-90
2022/08/29 01:42:24;;;;;;;5.20;2.70;;;21.70;48.60;;;;;;5029819;28;20485;-88
2022/08/29 01:44:54;;;;;;;4.10;2.90;;;21.80;48.60;;;;;;5044158;28;20518;-91
2022/08/29 01:47:21;;;;;;;5.47;2.97;;;21.70;48.60;;;;;;5081103;28;20448;-90
2022/08/29 01:49:49;;;;;;;5.63;3.10;;;21.60;48.70;;;;;;5057605;28;20828;-91
2022/08/29 01:52:16;;;;;;;3.07;2.77;;;21.60;48.90;;;;;;5061709;28;20542;-89
2022/08/29 01:54:45;;;;;;;3.83;2.87;;;21.50;48.80;;;;;;5057446;28;20870;-87
2022/08/29 01:57:15;;;;;;;3.80;3.50;;;21.60;49.10;;;;;;5041586;28;20453;-89
2022/08/29 01:59:44;;;;;;;4.43;2.90;;;21.50;49.20;;;;;;5060611;28;20526;-91
2022/08/29 02:02:15;;;;;;;3.03;2.73;;;21.50;49.60;;;;;;5044347;28;20559;-89
2022/08/29 02:04:42;;;;;;;4.83;2.90;;;21.50;49.00;;;;;;5079580;28;20476;-88
2022/08/29 02:07:09;;;;;;;8.63;3.10;;;21.50;49.00;;;;;;5078298;28;20939;-88
2022/08/29 02:09:36;;;;;;;8.23;2.93;;;21.40;48.80;;;;;;5080503;28;20459;-88
2022/08/29 02:12:05;;;;;;;3.73;3.30;;;21.30;48.70;;;;;;5036066;28;20460;-87
2022/08/29 02:14:34;;;;;;;3.70;2.40;;;21.30;48.80;;;;;;5059982;28;20488;-89
2022/08/29 02:17:03;;;;;;;6.40;3.00;;;21.30;48.90;;;;;;5047865;28;20440;-91
2022/08/29 02:19:32;;;;;;;5.40;2.87;;;21.30;48.80;;;;;;5068184;28;20457;-87
2022/08/29 02:22:01;;;;;;;5.63;3.30;;;21.20;48.80;;;;;;5083788;28;20470;-87
2022/08/29 02:24:29;;;;;;;2.73;2.53;;;21.20;48.90;;;;;;5062415;28;20472;-87
2022/08/29 02:26:57;;;;;;;3.13;2.70;;;21.20;49.30;;;;;;5080031;28;20480;-89
2022/08/29 02:29:26;;;;;;;5.80;3.33;;;21.20;49.50;;;;;;5055343;28;20453;-88
2022/08/29 02:31:53;;;;;;;6.13;2.97;;;21.10;49.40;;;;;;5045480;28;20455;-90
2022/08/29 02:34:22;;;;;;;5.17;3.47;;;21.20;49.50;;;;;;5047439;28;20472;-87
2022/08/29 02:36:50;;;;;;;5.33;3.23;;;21.10;49.50;;;;;;5062359;28;20498;-88
2022/08/29 02:39:18;;;;;;;3.97;3.37;;;21.10;49.60;;;;;;5059646;28;20855;-88
2022/08/29 02:41:45;;;;;;;3.80;3.07;;;21.10;49.90;;;;;;5025233;28;20465;-88
2022/08/29 02:44:12;;;;;;;4.30;3.63;;;21.10;50.10;;;;;;5051465;28;21030;-90
2022/08/29 02:46:39;;;;;;;5.07;3.00;;;21.00;50.20;;;;;;5036994;28;20448;-88
2022/08/29 02:49:07;;;;;;;7.27;3.83;;;21.00;50.40;;;;;;5078537;28;20461;-88
2022/08/29 02:51:35;;;;;;;3.30;3.00;;;21.00;50.70;;;;;;5053673;28;20525;-87
2022/08/29 02:54:03;;;;;;;6.57;3.10;;;21.00;50.90;;;;;;5046758;28;20490;-88
2022/08/29 02:56:30;;;;;;;5.03;3.23;;;21.00;51.10;;;;;;5062886;28;20456;-88
2022/08/29 02:58:58;;;;;;;4.60;3.17;;;21.00;51.10;;;;;;5087985;28;20447;-88
2022/08/29 03:01:25;;;;;;;3.87;2.97;;;21.00;50.90;;;;;;5039286;28;20472;-87
2022/08/29 03:03:53;;;;;;;3.77;3.10;;;21.00;50.90;;;;;;5051291;28;20450;-91
2022/08/29 03:06:21;;;;;;;5.87;3.43;;;20.90;50.70;;;;;;5037782;28;20444;-88
2022/08/29 03:08:50;;;;;;;12.20;3.80;;;20.90;50.60;;;;;;5064748;28;21018;-86
2022/08/29 03:11:18;;;;;;;3.90;2.77;;;20.80;50.60;;;;;;5053513;28;20450;-89
2022/08/29 03:13:47;;;;;;;4.93;3.23;;;20.80;50.60;;;;;;5082216;28;20439;-88
2022/08/29 03:16:14;;;;;;;3.70;3.40;;;20.80;50.70;;;;;;5066178;28;20447;-87
2022/08/29 03:18:42;;;;;;;4.73;3.93;;;20.80;50.80;;;;;;5066064;28;20440;-87
2022/08/29 03:21:16;;;;;;;3.67;2.87;;;20.80;50.80;;;;;;5052315;28;20895;-88
2022/08/29 03:23:43;;;;;;;4.77;3.10;;;20.70;50.60;;;;;;5062625;28;20432;-88
2022/08/29 03:26:12;;;;;;;4.80;3.17;;;20.70;50.30;;;;;;5086670;28;20444;-87
2022/08/29 03:28:40;;;;;;;3.80;3.40;;;20.60;50.90;;;;;;5046831;28;20843;-88
2022/08/29 03:31:07;;;;;;;5.00;3.20;;;20.60;51.10;;;;;;5074705;28;20448;-88
2022/08/29 03:33:34;;;;;;;4.43;3.23;;;20.50;51.30;;;;;;5062477;28;20509;-89
2022/08/29 03:36:02;;;;;;;5.20;3.00;;;20.50;51.20;;;;;;5077025;28;20452;-89
2022/08/29 03:38:29;;;;;;;4.57;2.90;;;20.40;51.10;;;;;;5067039;28;20437;-91
2022/08/29 03:40:56;;;;;;;3.97;3.17;;;20.50;51.10;;;;;;5065000;28;20850;-88
2022/08/29 03:43:25;;;;;;;5.00;3.40;;;20.50;51.10;;;;;;5084385;28;20444;-87
2022/08/29 03:45:53;;;;;;;5.30;3.50;;;20.40;51.10;;;;;;5063798;28;20478;-88
2022/08/29 03:48:20;;;;;;;5.53;3.27;;;20.40;51.10;;;;;;5049731;28;20483;-89
2022/08/29 03:50:47;;;;;;;6.67;3.60;;;20.40;51.30;;;;;;5083650;28;20446;-88
2022/08/29 03:53:15;;;;;;;3.93;3.03;;;20.40;51.00;;;;;;5080234;28;20539;-88
2022/08/29 03:55:42;;;;;;;3.70;2.90;;;20.40;50.90;;;;;;5062378;28;20593;-89
2022/08/29 03:58:09;;;;;;;4.83;3.50;;;20.40;50.80;;;;;;5064174;28;20521;-88
2022/08/29 04:00:38;;;;;;;5.43;3.27;;;20.40;50.80;;;;;;5050348;28;20436;-89
2022/08/29 04:03:05;;;;;;;5.83;5.23;;;20.30;50.90;;;;;;5052027;28;20437;-88
2022/08/29 04:05:32;;;;;;;7.30;3.60;;;20.30;51.10;;;;;;5064374;28;20483;-88
2022/08/29 04:07:59;;;;;;;7.23;3.23;;;20.20;51.00;;;;;;5081705;28;20448;-88
2022/08/29 04:10:29;;;;;;;6.00;3.23;;;20.20;50.80;;;;;;5063865;28;20463;-88
2022/08/29 04:12:57;;;;;;;4.80;3.00;;;20.20;50.70;;;;;;5071752;28;20463;-87
2022/08/29 04:15:27;;;;;;;3.57;3.20;;;20.20;50.80;;;;;;5083528;28;21018;-88
2022/08/29 04:17:58;;;;;;;4.83;3.10;;;20.10;50.90;;;;;;5033027;28;20475;-89
2022/08/29 04:20:29;;;;;;;3.17;2.87;;;20.10;51.10;;;;;;5081750;28;20441;-88
2022/08/29 04:22:58;;;;;;;4.97;3.30;;;20.10;51.20;;;;;;5067818;28;21045;-88
2022/08/29 04:25:27;;;;;;;4.70;2.90;;;20.10;51.30;;;;;;5085163;28;20555;-88
2022/08/29 04:27:54;;;;;;;3.80;3.27;;;20.10;51.50;;;;;;5053539;28;20436;-87
2022/08/29 04:30:24;;;;;;;3.47;3.00;;;20.10;51.90;;;;;;5052965;28;20444;-87
2022/08/29 04:32:51;;;;;;;5.70;3.00;;;20.00;51.70;;;;;;5054073;28;20431;-87
2022/08/29 04:35:20;;;;;;;6.17;3.40;;;20.00;51.80;;;;;;5078486;28;20475;-86
2022/08/29 04:37:48;;;;;;;4.30;3.30;;;20.00;51.80;;;;;;5052007;28;20447;-87
2022/08/29 04:40:18;;;;;;;5.30;2.97;;;20.00;51.70;;;;;;5048209;28;20800;-88
2022/08/29 04:42:45;;;;;;;4.30;3.30;;;20.00;51.60;;;;;;5064206;28;20471;-88
2022/08/29 04:45:15;;;;;;;3.73;2.90;;;19.90;51.60;;;;;;5060526;28;20468;-89
2022/08/29 04:47:43;;;;;;;3.67;2.63;;;20.00;51.70;;;;;;5064259;28;20965;-87
2022/08/29 04:50:13;;;;;;;5.43;3.43;;;20.00;51.70;;;;;;5060502;28;20489;-87
2022/08/29 04:52:42;;;;;;;7.97;3.40;;;19.90;51.70;;;;;;5054327;28;20436;-87
2022/08/29 04:55:11;;;;;;;3.70;3.03;;;19.90;51.90;;;;;;5064863;28;20482;-89
2022/08/29 04:57:40;;;;;;;5.37;3.67;;;19.90;52.10;;;;;;5059798;28;20440;-87
2022/08/29 05:00:12;;;;;;;5.07;2.60;;;19.90;52.40;;;;;;5052504;28;20943;-87
2022/08/29 05:02:39;;;;;;;5.57;3.47;;;19.90;52.20;;;;;;5050294;28;20467;-88
2022/08/29 05:05:07;;;;;;;3.97;3.57;;;19.90;52.30;;;;;;5074820;28;20482;-88
2022/08/29 05:07:35;;;;;;;3.50;3.10;;;19.90;52.30;;;;;;5069789;28;20440;-88
2022/08/29 05:10:09;;;;;;;5.70;3.50;;;19.90;52.30;;;;;;5061354;28;20500;-88
2022/08/29 05:12:36;;;;;;;7.17;3.63;;;19.90;52.40;;;;;;5079895;28;20510;-88
2022/08/29 05:15:05;;;;;;;3.83;3.20;;;19.80;52.60;;;;;;5059335;28;20515;-88
2022/08/29 05:17:33;;;;;;;3.97;3.40;;;19.90;52.80;;;;;;5060769;28;20455;-90
2022/08/29 05:20:01;;;;;;;4.47;3.10;;;19.80;52.60;;;;;;5069055;28;20931;-88
2022/08/29 05:22:28;;;;;;;4.83;3.00;;;19.90;52.50;;;;;;5054838;28;20460;-88
2022/08/29 05:24:56;;;;;;;4.40;3.60;;;19.90;52.60;;;;;;5080337;28;20457;-88
2022/08/29 05:27:25;;;;;;;5.00;3.47;;;19.90;52.90;;;;;;5052149;28;20977;-88
2022/08/29 05:29:52;;;;;;;5.00;3.47;;;19.90;53.30;;;;;;5053538;28;20479;-89
2022/08/29 05:32:20;;;;;;;7.07;3.70;;;19.90;53.30;;;;;;5065774;28;20461;-88
2022/08/29 05:34:49;;;;;;;4.40;3.30;;;19.90;54.20;;;;;;5045003;28;20483;-87
2022/08/29 05:37:19;;;;;;;7.57;4.53;;;19.80;54.00;;;;;;5030187;28;20528;-89
2022/08/29 05:39:47;;;;;;;7.90;3.87;;;19.90;53.80;;;;;;5066997;28;20464;-88
2022/08/29 05:42:16;;;;;;;6.70;4.23;;;19.80;54.70;;;;;;5063355;28;20474;-89
2022/08/29 05:44:45;;;;;;;4.20;3.60;;;19.80;54.00;;;;;;5038963;28;20466;-89
2022/08/29 05:47:14;;;;;;;10.20;3.77;;;19.90;53.80;;;;;;5079250;28;20536;-91
2022/08/29 05:49:43;;;;;;;6.73;4.13;;;19.90;53.50;;;;;;5061296;28;20448;-88
2022/08/29 05:52:13;;;;;;;4.87;3.33;;;19.90;53.30;;;;;;5063361;28;20436;-88
2022/08/29 05:54:42;;;;;;;5.83;4.40;;;19.90;53.40;;;;;;5050840;28;20478;-88
2022/08/29 05:57:11;;;;;;;5.80;4.07;;;19.90;53.50;;;;;;5052036;28;20491;-87
2022/08/29 05:59:39;;;;;;;7.90;3.50;;;20.00;53.40;;;;;;5080550;28;20444;-88
2022/08/29 06:02:09;;;;;;;6.80;4.00;;;20.00;53.20;;;;;;5020566;28;20507;-88
2022/08/29 06:04:36;;;;;;;7.57;4.00;;;20.00;53.30;;;;;;5045973;28;20476;-89
2022/08/29 06:07:04;;;;;;;5.80;4.00;;;20.00;53.40;;;;;;5070694;28;20531;-91
2022/08/29 06:09:32;;;;;;;6.33;3.53;;;20.00;53.30;;;;;;5058494;28;20440;-91
2022/08/29 06:11:59;;;;;;;9.20;3.57;;;20.00;53.40;;;;;;5043983;28;20557;-91
2022/08/29 06:14:26;;;;;;;4.83;3.40;;;19.90;53.30;;;;;;5067710;28;20470;-91
2022/08/29 06:16:54;;;;;;;13.17;3.50;;;20.00;53.60;;;;;;5076537;28;20452;-91
2022/08/29 06:19:23;;;;;;;4.30;3.37;;;20.00;53.40;;;;;;5050681;28;21136;-91
2022/08/29 06:21:50;;;;;;;5.50;3.23;;;20.00;53.40;;;;;;5029874;28;20487;-91
2022/08/29 06:24:18;;;;;;;11.30;4.07;;;20.00;54.20;;;;;;5031917;28;21290;-91
2022/08/29 06:26:45;;;;;;;3.40;3.10;;;20.00;54.10;;;;;;5034781;28;20479;-91
2022/08/29 06:29:13;;;;;;;5.50;3.60;;;20.10;53.90;;;;;;5053169;28;20448;-89
2022/08/29 06:31:40;;;;;;;4.27;3.43;;;20.20;53.40;;;;;;5065081;28;20463;-89
2022/08/29 06:34:08;;;;;;;9.53;4.60;;;20.10;52.70;;;;;;5083721;28;20472;-89
2022/08/29 06:36:37;;;;;;;9.43;3.33;;;20.10;52.60;;;;;;5051884;28;20451;-89
2022/08/29 06:39:08;;;;;;;12.53;3.93;;;20.20;52.70;;;;;;5063654;28;20982;-88
2022/08/29 06:41:37;;;;;;;13.03;3.67;;;20.20;52.30;;;;;;5056327;28;20542;-89
2022/08/29 06:44:07;;;;;;;6.57;3.67;;;20.20;52.60;;;;;;5049125;28;20547;-89
2022/08/29 06:46:37;;;;;;;15.63;4.63;;;20.20;52.40;;;;;;5063689;28;20436;-89
2022/08/29 06:49:06;;;;;;;25.20;4.60;;;20.30;52.50;;;;;;5061716;28;20440;-88
2022/08/29 06:51:37;;;;;;;12.00;3.43;;;20.30;51.90;;;;;;5081016;28;20445;-89
2022/08/29 06:54:07;;;;;;;14.40;3.77;;;20.30;51.90;;;;;;5051189;28;20499;-89
2022/08/29 06:56:35;;;;;;;24.47;4.33;;;20.30;50.70;;;;;;5046641;28;20455;-89
2022/08/29 06:59:02;;;;;;;11.03;3.83;;;20.30;50.80;;;;;;5051568;28;20456;-89
2022/08/29 07:01:30;;;;;;;7.30;3.53;;;20.40;51.10;;;;;;5046090;28;20532;-89
2022/08/29 07:03:58;;;;;;;10.33;4.40;;;20.50;51.30;;;;;;5042973;28;20490;-90
2022/08/29 07:06:25;;;;;;;9.47;3.40;;;20.60;51.70;;;;;;5043870;28;20943;-89
2022/08/29 07:08:54;;;;;;;18.77;4.40;;;20.60;52.00;;;;;;5057920;28;20456;-90
2022/08/29 07:11:21;;;;;;;12.13;3.30;;;20.70;51.90;;;;;;5042581;28;20460;-89
2022/08/29 07:13:48;;;;;;;12.13;3.47;;;20.80;51.40;;;;;;5047808;28;20940;-91
2022/08/29 07:16:17;;;;;;;17.87;3.53;;;20.80;51.50;;;;;;5061812;28;20452;-89
2022/08/29 07:18:45;;;;;;;16.73;3.30;;;20.90;51.40;;;;;;5044609;28;20448;-89
2022/08/29 07:21:15;;;;;;;13.40;3.10;;;20.90;51.10;;;;;;5061295;28;21243;-87
2022/08/29 07:23:42;;;;;;;7.93;3.10;;;20.90;50.30;;;;;;5043101;28;20475;-91
2022/08/29 07:26:13;;;;;;;6.17;3.13;;;21.00;50.50;;;;;;5045555;28;20468;-88
2022/08/29 07:28:40;;;;;;;13.47;2.93;;;21.00;50.80;;;;;;5058043;28;20431;-88
2022/08/29 07:31:08;;;;;;;7.20;2.73;;;21.00;50.60;;;;;;5077210;28;20454;-89
2022/08/29 07:33:36;;;;;;;13.17;3.30;;;21.00;50.00;;;;;;5057244;28;20448;-89
2022/08/29 07:36:03;;;;;;;6.97;3.30;;;21.20;50.90;;;;;;5040788;28;20559;-89
2022/08/29 07:38:31;;;;;;;5.40;2.40;;;21.30;49.50;;;;;;5042163;28;20433;-89
2022/08/29 07:40:59;;;;;;;16.23;2.57;;;21.40;49.20;;;;;;5059563;28;20444;-91
2022/08/29 07:43:28;;;;;;;4.37;2.20;;;21.50;49.90;;;;;;5039801;28;20469;-89
2022/08/29 07:45:56;;;;;;;5.30;2.43;;;21.70;49.80;;;;;;5058937;28;21158;-90
2022/08/29 07:48:23;;;;;;;8.90;2.77;;;21.90;49.50;;;;;;5058626;28;20571;-90
2022/08/29 07:50:51;;;;;;;5.40;2.80;;;22.00;48.70;;;;;;5077529;28;20448;-89
2022/08/29 07:53:18;;;;;;;3.10;2.03;;;22.20;48.20;;;;;;5046196;28;20437;-90
2022/08/29 07:55:45;;;;;;;4.73;2.37;;;22.30;48.30;;;;;;5059328;28;20980;-89
2022/08/29 07:58:12;;;;;;;11.23;2.57;;;22.50;46.90;;;;;;5048630;28;21267;-88
2022/08/29 08:00:41;;;;;;;4.13;2.70;;;22.60;46.80;;;;;;5043245;28;20951;-89
2022/08/29 08:03:08;;;;;;;2.53;1.97;;;22.70;46.70;;;;;;5060517;28;20480;-90
2022/08/29 08:05:35;;;;;;;4.90;2.43;;;22.90;46.00;;;;;;5058372;28;20532;-89
2022/08/29 08:08:02;;;;;;;5.93;2.77;;;23.00;45.20;;;;;;5048560;28;20456;-90
2022/08/29 08:10:29;;;;;;;5.40;2.63;;;23.00;44.20;;;;;;5075774;28;20818;-90
2022/08/29 08:12:56;;;;;;;4.73;2.20;;;23.00;44.60;;;;;;5078362;28;20466;-89
2022/08/29 08:15:23;;;;;;;6.00;2.10;;;22.90;45.00;;;;;;5075191;28;20948;-90
2022/08/29 08:17:51;;;;;;;6.73;3.00;;;23.10;45.80;;;;;;5044139;28;20459;-90
2022/08/29 08:20:18;;;;;;;5.73;2.73;;;23.30;44.30;;;;;;5044983;28;20481;-89
2022/08/29 08:22:45;;;;;;;7.07;2.87;;;23.20;44.50;;;;;;5079087;28;20464;-90
2022/08/29 08:25:12;;;;;;;3.60;2.13;;;23.40;44.40;;;;;;5050207;28;20464;-89
2022/08/29 08:27:39;;;;;;;4.10;2.27;;;23.40;44.20;;;;;;5054306;28;20439;-90
2022/08/29 08:30:07;;;;;;;7.57;2.93;;;23.60;43.30;;;;;;5049743;28;20543;-90
2022/08/29 08:32:34;;;;;;;7.00;2.60;;;23.50;42.90;;;;;;5047686;28;20439;-91
2022/08/29 08:35:03;;;;;;;9.80;2.80;;;23.70;43.40;;;;;;5068307;28;20505;-89
2022/08/29 08:37:30;;;;;;;4.30;2.97;;;23.90;43.80;;;;;;5064666;28;20456;-90
2022/08/29 08:39:58;;;;;;;4.17;2.30;;;24.10;43.50;;;;;;5063155;28;20943;-92
2022/08/29 08:42:38;;;;;;;3.13;2.17;;;24.10;43.60;;;;;;5062632;28;20524;-91
2022/08/29 08:45:09;;;;;;;6.20;3.00;;;24.10;42.90;;;;;;5061146;28;20488;-90
2022/08/29 08:47:42;;;;;;;7.30;2.90;;;24.20;42.80;;;;;;5060294;28;20453;-91
2022/08/29 08:50:21;;;;;;;2.90;2.27;;;24.20;42.40;;;;;;5044771;28;20447;-89
2022/08/29 08:52:53;;;;;;;3.17;2.27;;;24.30;42.40;;;;;;5048440;28;20436;-91
2022/08/29 08:55:28;;;;;;;3.07;2.77;;;24.40;42.70;;;;;;5046439;28;20464;-86
2022/08/29 08:58:04;;;;;;;4.70;2.70;;;24.60;42.60;;;;;;5045014;28;20442;-89
2022/08/29 09:00:40;;;;;;;4.20;2.40;;;24.70;41.80;;;;;;5045867;28;20474;-89
2022/08/29 09:03:23;;;;;;;3.43;2.37;;;24.70;42.20;;;;;;5042430;28;20529;-89
2022/08/29 09:06:03;;;;;;;5.53;2.80;;;25.00;42.30;;;;;;5066028;28;20982;-89
2022/08/29 09:08:40;;;;;;;5.63;2.17;;;25.00;42.00;;;;;;5059698;28;20449;-88
2022/08/29 09:11:18;;;;;;;5.17;2.60;;;25.10;42.00;;;;;;5039666;28;20446;-89
2022/08/29 09:13:59;;;;;;;5.10;3.00;;;25.30;41.50;;;;;;5058622;28;20432;-89
2022/08/29 09:16:30;;;;;;;7.40;2.53;;;25.20;41.00;;;;;;5031413;28;20440;-88
2022/08/29 09:19:04;;;;;;;6.20;2.90;;;25.20;41.20;;;;;;5079358;28;20447;-90
2022/08/29 09:21:43;;;;;;;6.40;3.00;;;25.40;41.70;;;;;;5049206;28;21229;-89
2022/08/29 09:24:17;;;;;;;11.27;3.57;;;25.70;41.20;;;;;;5080217;28;20480;-89
2022/08/29 09:26:44;;;;;;;5.97;2.67;;;26.10;41.20;;;;;;5076193;28;20468;-89
2022/08/29 09:29:12;;;;;;;6.30;2.70;;;26.40;40.80;;;;;;5056511;28;20835;-89
2022/08/29 09:31:40;;;;;;;5.70;2.80;;;26.70;40.80;;;;;;5065309;28;20452;-87
2022/08/29 09:34:11;;;;;;;3.50;2.60;;;26.80;39.40;;;;;;5077750;28;20496;-88
2022/08/29 09:36:45;;;;;;;5.67;2.70;;;27.00;39.80;;;;;;5044249;28;20448;-91
2022/08/29 09:39:18;;;;;;;8.43;3.33;;;27.20;39.30;;;;;;5043680;28;20445;-86
2022/08/29 09:41:48;;;;;;;3.70;3.00;;;27.50;38.70;;;;;;5058651;28;20444;-90
2022/08/29 09:44:25;;;;;;;4.17;3.13;;;27.20;38.50;;;;;;5050529;28;20477;-88
2022/08/29 09:47:09;;;;;;;5.23;3.10;;;27.00;39.30;;;;;;5079292;28;20841;-89
2022/08/29 09:49:38;;;;;;;3.70;3.27;;;27.00;39.40;;;;;;5057140;28;20448;-89
2022/08/29 09:52:14;;;;;;;8.13;2.83;;;27.00;39.60;;;;;;5062931;28;20441;-89
2022/08/29 09:54:41;;;;;;;6.67;2.60;;;27.30;39.20;;;;;;5063937;28;20602;-90
2022/08/29 09:57:19;;;;;;;5.43;2.77;;;27.60;39.50;;;;;;5044000;28;20455;-89
2022/08/29 09:59:49;;;;;;;7.23;3.03;;;27.80;38.20;;;;;;5059015;28;20531;-89
2022/08/29 10:02:20;;;;;;;3.73;2.90;;;27.90;37.90;;;;;;5060767;28;20438;-89
2022/08/29 10:04:51;;;;;;;4.03;3.13;;;27.90;37.90;;;;;;5079081;28;20471;-89
2022/08/29 10:07:22;;;;;;;5.00;3.10;;;28.20;37.60;;;;;;5066471;28;20444;-89
2022/08/29 10:09:59;;;;;;;5.23;2.90;;;28.10;36.30;;;;;;5058759;28;20439;-88
2022/08/29 10:12:35;;;;;;;3.10;2.83;;;28.20;37.60;;;;;;5028438;28;20504;-89
2022/08/29 10:15:08;;;;;;;4.53;3.07;;;28.20;36.60;;;;;;5041156;28;20464;-90
2022/08/29 10:20:41;;;;;;;3.90;3.00;;;28.40;36.30;;;;;;5048208;28;20464;-89
2022/08/29 10:23:19;;;;;;;5.17;3.10;;;28.60;35.60;;;;;;5078708;28;21150;-88
2022/08/29 10:25:46;;;;;;;6.40;2.60;;;28.90;34.90;;;;;;5075887;28;20459;-89
2022/08/29 10:28:22;;;;;;;6.57;2.70;;;28.80;34.90;;;;;;5042859;28;20576;-89
2022/08/29 10:30:55;;;;;;;5.63;3.03;;;28.80;35.40;;;;;;5060589;28;20490;-89
2022/08/29 10:33:34;;;;;;;9.10;2.80;;;28.80;34.40;;;;;;5056612;28;20974;-89
2022/08/29 10:36:07;;;;;;;6.90;2.77;;;29.00;34.90;;;;;;5062777;28;20482;-92
2022/08/29 10:38:46;;;;;;;9.23;3.43;;;29.20;35.60;;;;;;5076764;28;20451;-88
2022/08/29 10:41:26;;;;;;;6.47;3.10;;;29.40;34.00;;;;;;5076978;28;20933;-93
2022/08/29 10:44:02;;;;;;;6.17;2.87;;;29.40;34.90;;;;;;5055578;28;21138;-88
2022/08/29 10:46:50;;;;;;;11.50;3.03;;;29.50;34.50;;;;;;5058781;28;20454;-89
2022/08/29 10:49:31;;;;;;;4.07;3.00;;;29.60;32.90;;;;;;5075930;28;20438;-90
2022/08/29 10:52:10;;;;;;;4.83;3.47;;;29.80;33.70;;;;;;5055988;28;20468;-89
2022/08/29 10:54:50;;;;;;;6.47;2.77;;;29.90;33.10;;;;;;5029513;28;20473;-89
2022/08/29 10:57:31;;;;;;;4.50;2.57;;;29.90;32.00;;;;;;5032122;28;20526;-88
2022/08/29 11:00:06;;;;;;;4.40;2.70;;;29.70;32.70;;;;;;5054126;28;20839;-88
2022/08/29 11:02:37;;;;;;;3.50;3.00;;;29.60;31.80;;;;;;5070732;28;20447;-89
2022/08/29 11:05:10;;;;;;;5.27;2.83;;;29.80;32.30;;;;;;5074078;28;20540;-88
2022/08/29 11:07:45;;;;;;;3.20;2.47;;;30.00;32.60;;;;;;5043042;28;20456;-88
2022/08/29 11:10:17;;;;;;;5.90;2.87;;;30.20;31.70;;;;;;5063310;28;20454;-88
2022/08/29 11:12:50;;;;;;;3.00;2.47;;;30.20;31.10;;;;;;5054502;28;20831;-89
2022/08/29 11:15:21;;;;;;;5.20;2.53;;;30.40;32.40;;;;;;5053696;28;20480;-89
2022/08/29 11:17:53;;;;;;;7.67;3.23;;;30.60;30.80;;;;;;5056158;28;20447;-88
2022/08/29 11:20:26;;;;;;;3.37;2.17;;;30.70;30.40;;;;;;5072842;28;20436;-88
2022/08/29 11:23:00;;;;;;;3.17;2.47;;;30.50;30.00;;;;;;5073193;28;20467;-89
2022/08/29 11:25:31;;;;;;;3.63;2.43;;;30.40;30.70;;;;;;5071953;28;20560;-89
2022/08/29 11:28:08;;;;;;;3.57;2.73;;;30.40;29.70;;;;;;5046392;28;20544;-87
2022/08/29 11:30:40;;;;;;;4.30;2.70;;;30.10;29.80;;;;;;5051033;28;20447;-88
2022/08/29 11:33:17;;;;;;;4.70;2.87;;;30.20;29.80;;;;;;5052012;28;20457;-89
2022/08/29 11:35:55;;;;;;;4.07;2.17;;;30.20;29.70;;;;;;5072924;28;20494;-89
2022/08/29 11:38:49;;;;;;;3.70;2.33;;;30.30;30.00;;;;;;5054015;28;20436;-86
2022/08/29 11:41:26;;;;;;;4.63;2.63;;;30.50;29.40;;;;;;5062656;28;20446;-89
2022/08/29 11:43:57;;;;;;;3.70;2.20;;;30.70;29.10;;;;;;5072250;28;20464;-87
2022/08/29 11:46:38;;;;;;;4.00;2.87;;;31.00;29.00;;;;;;5036221;28;20440;-89
2022/08/29 11:49:37;;;;;;;2.67;2.20;;;31.40;29.10;;;;;;5073130;28;20447;-88
2022/08/29 11:52:23;;;;;;;2.50;2.23;;;31.50;28.00;;;;;;5071336;28;20435;-88
2022/08/29 11:55:38;;;;;;;3.93;2.40;;;31.40;28.50;;;;;;5075545;28;20467;-88
2022/08/29 11:58:41;;;;;;;2.70;2.50;;;31.20;28.40;;;;;;5051688;28;20888;-90
2022/08/29 12:01:10;;;;;;;5.13;2.70;;;31.30;28.20;;;;;;5074920;28;20543;-89
2022/08/29 12:03:46;;;;;;;3.90;2.40;;;31.50;28.60;;;;;;5047576;28;20471;-89
2022/08/29 12:06:36;;;;;;;3.73;2.67;;;31.60;28.30;;;;;;5056461;28;20688;-88
2022/08/29 12:09:25;;;;;;;4.50;2.57;;;31.80;27.90;;;;;;5077097;28;20612;-88
2022/08/29 12:12:35;;;;;;;4.43;2.67;;;32.10;27.80;;;;;;5056501;28;20555;-88
2022/08/29 12:15:44;;;;;;;5.10;2.50;;;32.40;28.00;;;;;;5060761;28;20468;-89
2022/08/29 12:18:49;;;;;;;4.80;2.50;;;32.40;27.10;;;;;;5076290;28;20939;-88
2022/08/29 12:21:40;;;;;;;2.87;2.50;;;32.30;26.60;;;;;;5071500;28;20979;-89
2022/08/29 12:24:27;;;;;;;3.93;2.60;;;32.00;27.50;;;;;;5072772;28;20476;-89
2022/08/29 12:26:54;;;;;;;4.23;2.30;;;31.80;27.80;;;;;;5075722;28;20446;-88
2022/08/29 12:29:25;;;;;;;6.33;2.53;;;31.50;27.50;;;;;;5060907;28;20823;-88
2022/08/29 12:32:22;;;;;;;2.67;2.47;;;31.20;27.90;;;;;;5078029;28;20454;-88
2022/08/29 12:35:04;;;;;;;11.13;2.80;;;31.30;28.40;;;;;;5033322;28;20504;-89
2022/08/29 12:37:51;;;;;;;4.83;2.90;;;31.60;27.60;;;;;;5067466;28;20448;-90
2022/08/29 12:40:44;;;;;;;9.60;2.47;;;32.00;26.90;;;;;;5061590;28;20460;-90
2022/08/29 12:43:24;;;;;;;3.43;2.30;;;32.10;27.10;;;;;;5035719;28;20474;-91
2022/08/29 12:45:52;;;;;;;6.20;2.50;;;32.20;27.20;;;;;;5051439;28;20475;-92
2022/08/29 12:48:25;;;;;;;3.93;2.17;;;32.40;27.00;;;;;;5047883;28;20471;-89
2022/08/29 12:50:52;;;;;;;2.27;1.83;;;32.40;27.00;;;;;;5047189;28;20447;-90
2022/08/29 12:53:22;;;;;;;4.30;2.57;;;32.50;26.80;;;;;;5047919;28;20463;-89
2022/08/29 12:55:53;;;;;;;5.63;2.57;;;32.60;26.90;;;;;;5060569;28;20484;-90
2022/08/29 12:58:39;;;;;;;5.40;2.40;;;32.40;26.20;;;;;;5062998;28;21276;-91
2022/08/29 13:01:16;;;;;;;4.73;2.77;;;32.50;26.70;;;;;;5080910;28;20527;-90
2022/08/29 13:03:55;;;;;;;4.40;2.60;;;32.30;27.10;;;;;;5082691;28;20554;-90
2022/08/29 13:06:22;;;;;;;4.07;2.77;;;32.20;27.50;;;;;;5048581;28;20459;-90
2022/08/29 13:08:49;;;;;;;4.80;2.27;;;32.20;27.20;;;;;;5051314;28;20492;-91